createdAt,value
2018-08-22T00:00:03.902Z,4.80
2018-08-22T00:01:03.900Z,2.40
2018-08-22T00:02:03.903Z,3.40
2018-08-22T00:03:03.896Z,3.00
2018-08-22T00:04:03.893Z,6.50
2018-08-22T00:05:03.890Z,2.90
2018-08-22T00:06:03.891Z,3.00
2018-08-22T00:07:03.896Z,2.90
2018-08-22T00:08:03.905Z,5.00
2018-08-22T00:09:04.014Z,3.40
2018-08-22T00:10:03.892Z,3.00
2018-08-22T00:11:03.892Z,2.40
2018-08-22T00:12:03.889Z,2.70
2018-08-22T00:13:03.890Z,3.50
2018-08-22T00:14:03.890Z,2.70
2018-08-22T00:15:03.916Z,2.70
2018-08-22T00:16:03.884Z,2.40
2018-08-22T00:17:03.882Z,3.00
2018-08-22T00:18:03.887Z,3.40
2018-08-22T00:19:03.886Z,5.10
2018-08-22T00:20:03.885Z,3.20
2018-08-22T00:21:03.884Z,3.50
2018-08-22T00:22:03.884Z,3.60
2018-08-22T00:23:03.878Z,2.30
2018-08-22T00:24:03.877Z,3.30
2018-08-22T00:25:03.882Z,3.40
2018-08-22T00:26:03.881Z,3.30
2018-08-22T00:27:03.877Z,3.10
2018-08-22T00:28:03.876Z,4.60
2018-08-22T00:29:03.895Z,3.60
2018-08-22T00:30:03.875Z,3.10
2018-08-22T00:31:03.878Z,2.80
2018-08-22T00:32:03.878Z,4.10
2018-08-22T00:33:03.876Z,3.00
2018-08-22T00:34:03.876Z,2.70
2018-08-22T00:35:03.871Z,3.00
2018-08-22T00:36:03.872Z,4.00
2018-08-22T00:37:03.871Z,3.40
2018-08-22T00:38:03.870Z,2.90
2018-08-22T00:39:03.873Z,2.80
2018-08-22T00:40:03.871Z,3.00
2018-08-22T00:41:03.866Z,3.00
2018-08-22T00:42:03.866Z,3.60
2018-08-22T00:43:03.872Z,2.60
2018-08-22T00:44:03.871Z,3.10
2018-08-22T00:45:03.874Z,2.70
2018-08-22T00:46:03.870Z,2.40
2018-08-22T00:47:03.863Z,3.30
2018-08-22T00:48:03.862Z,2.60
2018-08-22T00:49:03.863Z,3.10
2018-08-22T00:50:03.860Z,3.40
2018-08-22T00:51:03.865Z,3.80
2018-08-22T00:52:03.863Z,3.80
2018-08-22T00:53:03.866Z,3.20
2018-08-22T00:54:03.862Z,2.60
2018-08-22T00:55:03.857Z,2.90
2018-08-22T00:56:03.872Z,2.90
2018-08-22T00:57:03.861Z,4.20
2018-08-22T00:58:03.861Z,5.30
2018-08-22T00:59:03.858Z,3.30
2018-08-22T01:00:03.855Z,2.60
2018-08-22T01:01:03.853Z,4.00
2018-08-22T01:02:03.853Z,3.60
2018-08-22T01:03:03.860Z,3.30
2018-08-22T01:04:03.854Z,2.60
2018-08-22T01:05:03.858Z,4.40
2018-08-22T01:06:03.854Z,3.30
2018-08-22T01:07:03.850Z,3.20
2018-08-22T01:08:03.849Z,3.70
2018-08-22T01:09:03.848Z,3.10
2018-08-22T01:10:03.846Z,3.10
2018-08-22T01:11:03.850Z,3.50
2018-08-22T01:12:03.850Z,2.40
2018-08-22T01:13:03.843Z,4.10
2018-08-22T01:14:03.843Z,2.70
2018-08-22T01:15:03.846Z,2.50
2018-08-22T01:16:03.844Z,2.20
2018-08-22T01:17:03.845Z,2.10
2018-08-22T01:18:03.845Z,2.40
2018-08-22T01:19:03.840Z,3.80
2018-08-22T01:20:03.840Z,2.60
2018-08-22T01:21:03.838Z,4.80
2018-08-22T01:22:03.839Z,3.00
2018-08-22T01:23:03.841Z,4.30
2018-08-22T01:24:03.872Z,3.40
2018-08-22T01:25:03.889Z,5.00
2018-08-22T01:26:03.837Z,2.40
2018-08-22T01:27:03.835Z,2.20
2018-08-22T01:28:03.833Z,2.80
2018-08-22T01:29:03.837Z,3.10
2018-08-22T01:30:03.839Z,3.30
2018-08-22T01:31:03.833Z,2.20
2018-08-22T01:32:03.832Z,3.10
2018-08-22T01:33:03.830Z,2.40
2018-08-22T01:34:03.831Z,3.00
2018-08-22T01:35:03.836Z,3.60
2018-08-22T01:36:03.832Z,3.60
2018-08-22T01:37:03.834Z,2.30
2018-08-22T01:38:03.832Z,3.40
2018-08-22T01:39:03.827Z,3.20
2018-08-22T01:40:03.826Z,2.80
2018-08-22T01:41:03.824Z,3.50
2018-08-22T01:42:03.825Z,3.90
2018-08-22T01:43:03.831Z,3.20
2018-08-22T01:44:03.829Z,2.00
2018-08-22T01:45:03.822Z,2.50
2018-08-22T01:46:03.821Z,3.70
2018-08-22T01:47:03.826Z,2.50
2018-08-22T01:48:03.824Z,3.70
2018-08-22T01:49:03.824Z,3.80
2018-08-22T01:50:03.824Z,2.00
2018-08-22T01:51:03.817Z,2.60
2018-08-22T01:52:03.817Z,4.30
2018-08-22T01:53:03.817Z,2.40
2018-08-22T01:54:03.820Z,3.10
2018-08-22T01:55:03.820Z,3.50
2018-08-22T01:56:03.819Z,4.80
2018-08-22T01:57:03.819Z,2.90
2018-08-22T01:58:03.817Z,2.40
2018-08-22T01:59:03.812Z,2.80
2018-08-22T02:00:03.812Z,3.20
2018-08-22T02:01:03.814Z,4.10
2018-08-22T02:02:03.816Z,4.00
2018-08-22T02:03:03.810Z,3.10
2018-08-22T02:04:03.808Z,2.40
2018-08-22T02:05:03.811Z,3.80
2018-08-22T02:06:03.807Z,3.40
2018-08-22T02:07:03.811Z,2.80
2018-08-22T02:08:03.811Z,2.30
2018-08-22T02:09:03.808Z,2.80
2018-08-22T02:10:03.809Z,3.00
2018-08-22T02:11:03.802Z,4.00
2018-08-22T02:12:03.802Z,2.30
2018-08-22T02:13:03.801Z,3.10
2018-08-22T02:14:03.800Z,2.60
2018-08-22T02:15:03.808Z,2.20
2018-08-22T02:16:03.802Z,3.30
2018-08-22T02:17:03.797Z,3.00
2018-08-22T02:18:03.801Z,2.50
2018-08-22T02:19:03.802Z,4.20
2018-08-22T02:20:03.798Z,2.50
2018-08-22T02:21:03.799Z,2.30
2018-08-22T02:22:03.830Z,2.40
2018-08-22T02:23:03.794Z,2.50
2018-08-22T02:24:03.790Z,2.50
2018-08-22T02:25:03.837Z,3.10
2018-08-22T02:26:03.789Z,4.10
2018-08-22T02:27:03.793Z,3.70
2018-08-22T02:28:03.790Z,2.80
2018-08-22T02:29:03.791Z,2.20
2018-08-22T02:30:03.792Z,2.40
2018-08-22T02:31:03.786Z,2.30
2018-08-22T02:32:03.785Z,3.40
2018-08-22T02:33:03.790Z,3.30
2018-08-22T02:34:03.788Z,3.40
2018-08-22T02:35:03.782Z,2.10
2018-08-22T02:36:03.782Z,2.80
2018-08-22T02:37:03.777Z,2.70
2018-08-22T02:38:03.777Z,2.60
2018-08-22T02:39:03.780Z,2.80
2018-08-22T02:40:03.788Z,2.60
2018-08-22T02:41:03.780Z,3.20
2018-08-22T02:42:03.783Z,2.90
2018-08-22T02:43:03.771Z,3.30
2018-08-22T02:44:03.771Z,2.50
2018-08-22T02:45:03.771Z,3.40
2018-08-22T02:46:03.769Z,2.50
2018-08-22T02:47:03.777Z,3.70
2018-08-22T02:48:03.770Z,2.50
2018-08-22T02:49:03.764Z,3.10
2018-08-22T02:50:03.764Z,3.00
2018-08-22T02:51:03.768Z,2.50
2018-08-22T02:52:03.767Z,2.20
2018-08-22T02:53:03.764Z,3.40
2018-08-22T02:54:03.762Z,3.00
2018-08-22T02:55:03.757Z,2.70
2018-08-22T02:56:03.756Z,2.90
2018-08-22T02:57:03.755Z,3.30
2018-08-22T02:58:03.755Z,4.10
2018-08-22T02:59:03.758Z,2.50
2018-08-22T03:00:03.754Z,2.60
2018-08-22T03:01:03.755Z,2.90
2018-08-22T03:02:03.754Z,2.70
2018-08-22T03:03:03.748Z,2.00
2018-08-22T03:04:03.745Z,2.30
2018-08-22T03:05:03.752Z,3.30
2018-08-22T03:06:03.748Z,2.40
2018-08-22T03:07:03.742Z,2.40
2018-08-22T03:08:03.742Z,2.80
2018-08-22T03:09:03.743Z,4.50
2018-08-22T03:10:03.738Z,2.60
2018-08-22T03:11:03.741Z,2.40
2018-08-22T03:12:03.738Z,2.90
2018-08-22T03:13:03.739Z,2.60
2018-08-22T03:14:03.745Z,5.40
2018-08-22T03:15:03.733Z,2.70
2018-08-22T03:16:03.730Z,2.20
2018-08-22T03:17:03.734Z,3.50
2018-08-22T03:18:03.729Z,2.30
2018-08-22T03:19:03.730Z,2.50
2018-08-22T03:20:03.729Z,3.90
2018-08-22T03:21:03.723Z,3.30
2018-08-22T03:22:03.724Z,2.90
2018-08-22T03:23:03.724Z,3.10
2018-08-22T03:24:03.724Z,2.40
2018-08-22T03:25:03.725Z,4.00
2018-08-22T03:26:03.763Z,3.90
2018-08-22T03:27:03.715Z,2.30
2018-08-22T03:28:03.712Z,3.50
2018-08-22T03:29:03.714Z,2.70
2018-08-22T03:30:03.709Z,3.70
2018-08-22T03:31:03.714Z,2.90
2018-08-22T03:32:03.712Z,2.60
2018-08-22T03:33:03.710Z,2.60
2018-08-22T03:34:03.707Z,4.30
2018-08-22T03:35:03.702Z,3.70
2018-08-22T03:36:03.700Z,3.10
2018-08-22T03:37:03.702Z,3.00
2018-08-22T03:38:03.703Z,3.30
2018-08-22T03:39:03.696Z,2.20
2018-08-22T03:40:03.693Z,3.40
2018-08-22T03:41:03.694Z,2.30
2018-08-22T03:42:03.691Z,3.20
2018-08-22T03:43:03.694Z,3.00
2018-08-22T03:44:03.692Z,4.30
2018-08-22T03:45:03.692Z,2.70
2018-08-22T03:46:03.689Z,2.40
2018-08-22T03:47:03.682Z,4.40
2018-08-22T03:48:03.680Z,2.60
2018-08-22T03:49:03.678Z,3.20
2018-08-22T03:50:03.679Z,2.80
2018-08-22T03:51:03.679Z,3.40
2018-08-22T03:52:03.679Z,3.10
2018-08-22T03:53:03.675Z,3.40
2018-08-22T03:54:03.670Z,2.30
2018-08-22T03:55:03.674Z,2.50
2018-08-22T03:56:03.672Z,3.00
2018-08-22T03:57:03.670Z,4.60
2018-08-22T03:58:03.669Z,3.20
2018-08-22T03:59:03.666Z,3.30
2018-08-22T04:00:03.664Z,2.70
2018-08-22T04:01:03.658Z,4.40
2018-08-22T04:02:03.657Z,4.30
2018-08-22T04:03:03.660Z,4.20
2018-08-22T04:04:03.658Z,2.50
2018-08-22T04:05:03.655Z,3.40
2018-08-22T04:06:03.653Z,3.20
2018-08-22T04:07:03.648Z,2.80
2018-08-22T04:08:03.649Z,3.00
2018-08-22T04:09:03.652Z,2.20
2018-08-22T04:10:03.647Z,4.20
2018-08-22T04:11:03.641Z,4.40
2018-08-22T04:12:03.638Z,4.20
2018-08-22T04:13:03.636Z,4.00
2018-08-22T04:14:03.637Z,4.10
2018-08-22T04:15:03.639Z,4.80
2018-08-22T04:16:03.636Z,3.00
2018-08-22T04:17:03.634Z,3.70
2018-08-22T04:18:03.633Z,3.70
2018-08-22T04:19:03.626Z,3.90
2018-08-22T04:20:03.625Z,3.30
2018-08-22T04:21:03.623Z,4.60
2018-08-22T04:22:03.620Z,3.80
2018-08-22T04:23:03.624Z,3.90
2018-08-22T04:24:03.621Z,3.60
2018-08-22T04:25:03.616Z,3.80
2018-08-22T04:26:03.615Z,2.50
2018-08-22T04:27:03.617Z,3.40
2018-08-22T04:28:03.615Z,4.60
2018-08-22T04:29:03.612Z,5.40
2018-08-22T04:30:03.612Z,3.90
2018-08-22T04:31:03.649Z,4.60
2018-08-22T04:32:03.602Z,6.10
2018-08-22T04:33:03.600Z,4.90
2018-08-22T04:34:03.600Z,4.60
2018-08-22T04:35:03.603Z,2.70
2018-08-22T04:36:03.599Z,2.90
2018-08-22T04:37:03.599Z,5.30
2018-08-22T04:38:03.597Z,3.00
2018-08-22T04:39:03.590Z,3.70
2018-08-22T04:40:03.590Z,3.90
2018-08-22T04:41:03.591Z,3.50
2018-08-22T04:42:03.590Z,4.10
2018-08-22T04:43:03.583Z,3.80
2018-08-22T04:44:03.583Z,3.90
2018-08-22T04:45:03.578Z,3.20
2018-08-22T04:46:03.576Z,5.70
2018-08-22T04:47:03.579Z,4.40
2018-08-22T04:48:03.584Z,5.00
2018-08-22T04:49:03.575Z,4.70
2018-08-22T04:50:03.574Z,3.60
2018-08-22T04:51:03.567Z,3.90
2018-08-22T04:52:03.609Z,4.90
2018-08-22T04:53:03.566Z,3.30
2018-08-22T04:54:03.562Z,2.90
2018-08-22T04:55:03.568Z,3.50
2018-08-22T04:56:03.563Z,3.40
2018-08-22T04:57:03.557Z,3.90
2018-08-22T04:58:03.555Z,3.40
2018-08-22T04:59:03.559Z,3.70
2018-08-22T05:00:03.557Z,6.30
2018-08-22T05:01:03.553Z,4.40
2018-08-22T05:02:03.552Z,5.50
2018-08-22T05:03:03.549Z,3.20
2018-08-22T05:04:03.544Z,4.70
2018-08-22T05:05:03.553Z,3.00
2018-08-22T05:06:03.591Z,3.30
2018-08-22T05:07:03.544Z,3.90
2018-08-22T05:08:03.542Z,5.10
2018-08-22T05:09:03.542Z,4.30
2018-08-22T05:10:03.540Z,4.60
2018-08-22T05:11:03.535Z,3.50
2018-08-22T05:12:03.532Z,6.20
2018-08-22T05:13:03.536Z,4.60
2018-08-22T05:14:03.535Z,4.50
2018-08-22T05:15:03.530Z,3.80
2018-08-22T05:16:03.527Z,2.70
2018-08-22T05:17:03.529Z,3.60
2018-08-22T05:18:03.526Z,3.60
2018-08-22T05:19:03.529Z,4.60
2018-08-22T05:20:03.528Z,4.20
2018-08-22T05:21:03.522Z,4.40
2018-08-22T05:22:03.523Z,3.50
2018-08-22T05:23:03.526Z,3.80
2018-08-22T05:24:03.525Z,3.80
2018-08-22T05:25:03.529Z,4.00
2018-08-22T05:26:03.524Z,3.60
2018-08-22T05:27:03.520Z,5.30
2018-08-22T05:28:03.523Z,2.90
2018-08-22T05:29:03.524Z,4.30
2018-08-22T05:30:03.529Z,2.70
2018-08-22T05:31:03.522Z,3.00
2018-08-22T05:32:03.522Z,6.30
2018-08-22T05:33:03.523Z,2.80
2018-08-22T05:34:03.523Z,3.10
2018-08-22T05:35:03.529Z,3.50
2018-08-22T05:36:03.530Z,3.00
2018-08-22T05:37:03.530Z,3.50
2018-08-22T05:38:03.533Z,3.30
2018-08-22T05:39:03.528Z,3.10
2018-08-22T05:40:03.529Z,3.30
2018-08-22T05:41:03.534Z,4.00
2018-08-22T05:42:03.535Z,5.60
2018-08-22T05:43:03.539Z,4.30
2018-08-22T05:44:03.540Z,4.00
2018-08-22T05:45:03.538Z,4.30
2018-08-22T05:46:03.541Z,3.30
2018-08-22T05:47:03.547Z,3.40
2018-08-22T05:48:03.549Z,3.30
2018-08-22T05:49:03.570Z,4.70
2018-08-22T05:50:03.554Z,3.90
2018-08-22T05:51:03.554Z,3.30
2018-08-22T05:52:03.556Z,3.80
2018-08-22T05:53:03.558Z,4.20
2018-08-22T05:54:03.562Z,4.10
2018-08-22T05:55:03.569Z,3.00
2018-08-22T05:56:03.573Z,3.20
2018-08-22T05:57:03.574Z,3.60
2018-08-22T05:58:03.578Z,2.80
2018-08-22T05:59:03.577Z,5.20
2018-08-22T06:00:03.582Z,3.50
2018-08-22T06:01:03.589Z,4.40
2018-08-22T06:02:03.593Z,2.70
2018-08-22T06:03:03.595Z,3.60
2018-08-22T06:04:03.596Z,3.10
2018-08-22T06:05:03.604Z,3.40
2018-08-22T06:06:03.604Z,4.30
2018-08-22T06:07:03.615Z,6.50
2018-08-22T06:08:03.619Z,4.20
2018-08-22T06:09:03.653Z,3.70
2018-08-22T06:10:03.628Z,4.40
2018-08-22T06:11:03.629Z,3.40
2018-08-22T06:12:03.633Z,3.00
2018-08-22T06:13:03.637Z,3.60
2018-08-22T06:14:03.644Z,4.40
2018-08-22T06:15:03.654Z,4.10
2018-08-22T06:16:03.658Z,3.60
2018-08-22T06:17:03.658Z,4.00
2018-08-22T06:18:03.664Z,3.20
2018-08-22T06:19:03.674Z,4.30
2018-08-22T06:20:03.680Z,4.50
2018-08-22T06:21:03.690Z,3.50
2018-08-22T06:22:03.693Z,4.10
2018-08-22T06:23:03.693Z,5.00
2018-08-22T06:24:03.698Z,5.00
2018-08-22T06:25:03.705Z,4.30
2018-08-22T06:26:03.713Z,4.70
2018-08-22T06:27:03.750Z,4.80
2018-08-22T06:28:03.728Z,6.20
2018-08-22T06:29:03.736Z,5.40
2018-08-22T06:30:03.744Z,4.60
2018-08-22T06:31:03.746Z,4.80
2018-08-22T06:32:03.751Z,5.60
2018-08-22T06:33:03.776Z,4.70
2018-08-22T06:34:03.771Z,4.00
2018-08-22T06:35:03.778Z,6.20
2018-08-22T06:36:03.782Z,5.70
2018-08-22T06:37:03.788Z,6.10
2018-08-22T06:38:03.796Z,5.30
2018-08-22T06:39:03.810Z,6.20
2018-08-22T06:40:03.816Z,6.70
2018-08-22T06:41:03.826Z,4.30
2018-08-22T06:42:03.833Z,4.80
2018-08-22T06:43:03.839Z,5.90
2018-08-22T06:44:03.874Z,4.00
2018-08-22T06:45:03.856Z,3.20
2018-08-22T06:46:03.866Z,5.50
2018-08-22T06:47:03.879Z,5.70
2018-08-22T06:48:03.889Z,8.50
2018-08-22T06:49:03.892Z,3.20
2018-08-22T06:50:03.903Z,4.30
2018-08-22T06:51:03.917Z,4.50
2018-08-22T06:52:03.925Z,4.00
2018-08-22T06:53:03.934Z,3.20
2018-08-22T06:54:03.944Z,4.30
2018-08-22T06:55:03.957Z,5.50
2018-08-22T06:56:03.963Z,4.40
2018-08-22T06:57:03.999Z,3.90
2018-08-22T06:58:03.984Z,3.30
2018-08-22T06:59:03.995Z,4.00
2018-08-22T07:00:04.005Z,3.30
2018-08-22T07:01:04.018Z,3.20
2018-08-22T07:02:04.028Z,5.50
2018-08-22T07:03:04.034Z,5.20
2018-08-22T07:04:04.045Z,3.40
2018-08-22T07:05:04.060Z,2.80
2018-08-22T07:06:04.070Z,5.10
2018-08-22T07:07:04.078Z,4.10
2018-08-22T07:08:04.128Z,3.70
2018-08-22T07:09:04.098Z,4.10
2018-08-22T07:10:04.110Z,3.40
2018-08-22T07:11:04.126Z,3.50
2018-08-22T07:12:04.136Z,4.70
2018-08-22T07:13:04.147Z,3.80
2018-08-22T07:14:04.177Z,5.70
2018-08-22T07:15:04.166Z,5.00
2018-08-22T07:16:04.178Z,3.80
2018-08-22T07:17:04.188Z,3.40
2018-08-22T07:18:04.201Z,3.80
2018-08-22T07:19:04.217Z,3.20
2018-08-22T07:20:04.238Z,4.80
2018-08-22T07:21:04.319Z,3.40
2018-08-22T07:22:04.251Z,3.30
2018-08-22T07:23:04.263Z,4.10
2018-08-22T07:24:04.273Z,4.10
2018-08-22T07:25:04.284Z,3.50
2018-08-22T07:26:04.296Z,4.30
2018-08-22T07:27:04.304Z,6.00
2018-08-22T07:28:04.314Z,3.80
2018-08-22T07:29:04.326Z,3.40
2018-08-22T07:30:04.369Z,4.60
2018-08-22T07:31:04.356Z,6.50
2018-08-22T07:32:04.367Z,4.80
2018-08-22T07:33:04.378Z,4.80
2018-08-22T07:34:04.391Z,5.40
2018-08-22T07:35:04.399Z,5.00
2018-08-22T07:36:04.410Z,5.60
2018-08-22T07:37:04.429Z,4.40
2018-08-22T07:38:04.444Z,3.50
2018-08-22T07:39:04.448Z,5.60
2018-08-22T07:40:04.459Z,3.50
2018-08-22T07:41:04.475Z,3.40
2018-08-22T07:42:04.491Z,5.20
2018-08-22T07:43:04.500Z,4.00
2018-08-22T07:44:04.514Z,4.30
2018-08-22T07:45:04.530Z,3.70
2018-08-22T07:46:04.544Z,4.60
2018-08-22T07:47:04.566Z,4.80
2018-08-22T07:48:04.558Z,3.90
2018-08-22T07:49:04.570Z,3.20
2018-08-22T07:50:04.631Z,3.70
2018-08-22T07:51:04.600Z,3.50
2018-08-22T07:52:04.612Z,6.90
2018-08-22T07:53:04.619Z,6.40
2018-08-22T07:54:04.632Z,5.40
2018-08-22T07:55:04.649Z,4.80
2018-08-22T07:56:04.703Z,5.70
2018-08-22T07:57:04.675Z,3.90
2018-08-22T07:58:04.687Z,6.50
2018-08-22T07:59:04.694Z,3.90
2018-08-22T08:00:04.766Z,5.50
2018-08-22T08:01:04.722Z,5.70
2018-08-22T08:02:04.733Z,4.90
2018-08-22T08:03:04.751Z,4.10
2018-08-22T08:04:04.762Z,4.70
2018-08-22T08:05:04.773Z,4.90
2018-08-22T08:06:04.788Z,3.60
2018-08-22T08:07:04.800Z,3.80
2018-08-22T08:08:04.807Z,5.30
2018-08-22T08:09:04.826Z,4.50
2018-08-22T08:10:04.838Z,6.00
2018-08-22T08:11:04.968Z,5.30
2018-08-22T08:12:04.857Z,4.10
2018-08-22T08:13:04.870Z,4.90
2018-08-22T08:14:04.883Z,6.80
2018-08-22T08:15:04.954Z,4.30
2018-08-22T08:16:04.920Z,4.50
2018-08-22T08:17:04.970Z,4.50
2018-08-22T08:18:04.942Z,3.80
2018-08-22T08:19:04.948Z,4.60
2018-08-22T08:20:04.982Z,3.90
2018-08-22T08:21:04.978Z,5.50
2018-08-22T08:22:04.986Z,4.00
2018-08-22T08:23:05.005Z,4.10
2018-08-22T08:24:05.016Z,5.00
2018-08-22T08:25:05.024Z,3.60
2018-08-22T08:26:05.041Z,4.90
2018-08-22T08:27:05.059Z,4.50
2018-08-22T08:28:05.069Z,3.70
2018-08-22T08:29:05.083Z,3.80
2018-08-22T08:30:05.098Z,4.80
2018-08-22T08:31:05.105Z,4.30
2018-08-22T08:32:05.117Z,5.90
2018-08-22T08:33:05.132Z,4.80
2018-08-22T08:34:05.145Z,4.30
2018-08-22T08:35:05.165Z,6.80
2018-08-22T08:36:05.188Z,3.80
2018-08-22T08:37:05.190Z,6.30
2018-08-22T08:38:05.205Z,4.40
2018-08-22T08:39:05.213Z,5.10
2018-08-22T08:40:05.226Z,4.40
2018-08-22T08:41:05.281Z,4.90
2018-08-22T08:42:05.258Z,4.80
2018-08-22T08:43:05.272Z,6.80
2018-08-22T08:44:05.281Z,6.40
2018-08-22T08:45:05.294Z,4.70
2018-08-22T08:46:05.308Z,7.00
2018-08-22T08:47:05.326Z,5.00
2018-08-22T08:48:05.372Z,5.50
2018-08-22T08:49:05.355Z,5.00
2018-08-22T08:50:05.371Z,4.90
2018-08-22T08:51:05.384Z,5.00
2018-08-22T08:52:05.397Z,4.30
2018-08-22T08:53:05.407Z,5.30
2018-08-22T08:54:05.422Z,6.40
2018-08-22T08:55:05.442Z,8.30
2018-08-22T08:56:05.481Z,5.90
2018-08-22T08:57:05.594Z,5.50
2018-08-22T08:58:05.480Z,5.20
2018-08-22T08:59:05.500Z,5.40
2018-08-22T09:00:05.515Z,4.20
2018-08-22T09:01:05.529Z,6.10
2018-08-22T09:02:05.543Z,5.80
2018-08-22T09:03:05.556Z,4.80
2018-08-22T09:04:05.573Z,4.50
2018-08-22T09:05:05.585Z,4.50
2018-08-22T09:06:05.599Z,5.70
2018-08-22T09:07:05.618Z,4.60
2018-08-22T09:08:05.632Z,7.30
2018-08-22T09:09:05.649Z,5.30
2018-08-22T09:10:05.663Z,4.50
2018-08-22T09:11:05.673Z,4.60
2018-08-22T09:12:05.715Z,4.40
2018-08-22T09:13:05.708Z,5.80
2018-08-22T09:14:05.722Z,5.30
2018-08-22T09:15:05.734Z,6.20
2018-08-22T09:16:05.749Z,8.10
2018-08-22T09:17:05.763Z,5.70
2018-08-22T09:18:05.779Z,8.60
2018-08-22T09:19:05.797Z,6.80
2018-08-22T09:20:05.813Z,5.90
2018-08-22T09:21:05.882Z,4.70
2018-08-22T09:22:05.845Z,6.30
2018-08-22T09:23:05.856Z,6.20
2018-08-22T09:24:05.883Z,6.20
2018-08-22T09:25:05.887Z,5.40
2018-08-22T09:26:05.911Z,5.90
2018-08-22T09:27:05.927Z,6.70
2018-08-22T09:28:05.981Z,7.30
2018-08-22T09:29:05.955Z,6.70
2018-08-22T09:30:05.971Z,8.40
2018-08-22T09:31:05.993Z,4.50
2018-08-22T09:32:06.006Z,6.40
2018-08-22T09:33:06.022Z,6.30
2018-08-22T09:34:06.038Z,6.30
2018-08-22T09:35:06.051Z,7.10
2018-08-22T09:36:06.066Z,6.90
2018-08-22T09:37:06.086Z,6.70
2018-08-22T09:38:06.099Z,6.90
2018-08-22T09:39:06.121Z,7.90
2018-08-22T09:40:06.170Z,6.30
2018-08-22T09:41:06.154Z,5.80
2018-08-22T09:42:06.170Z,6.40
2018-08-22T09:43:06.200Z,5.80
2018-08-22T09:44:06.197Z,7.30
2018-08-22T09:45:06.237Z,6.30
2018-08-22T09:46:06.233Z,4.70
2018-08-22T09:47:06.245Z,5.10
2018-08-22T09:48:06.261Z,7.40
2018-08-22T09:49:06.276Z,7.30
2018-08-22T09:50:06.296Z,7.00
2018-08-22T09:51:06.368Z,7.20
2018-08-22T09:52:06.328Z,6.30
2018-08-22T09:53:06.344Z,6.90
2018-08-22T09:54:06.361Z,7.40
2018-08-22T09:55:06.375Z,5.40
2018-08-22T09:56:06.387Z,7.40
2018-08-22T09:57:06.404Z,6.80
2018-08-22T09:58:06.438Z,5.50
2018-08-22T09:59:06.440Z,6.60
2018-08-22T10:00:06.467Z,5.80
2018-08-22T10:01:06.468Z,4.90
2018-08-22T10:02:06.484Z,5.90
2018-08-22T10:03:06.505Z,5.90
2018-08-22T10:04:06.521Z,7.10
2018-08-22T10:05:06.538Z,6.40
2018-08-22T10:06:06.553Z,6.80
2018-08-22T10:07:06.594Z,9.50
2018-08-22T10:08:06.582Z,7.30
2018-08-22T10:09:06.600Z,5.20
2018-08-22T10:10:06.617Z,5.50
2018-08-22T10:11:06.639Z,5.10
2018-08-22T10:12:06.657Z,6.80
2018-08-22T10:13:06.673Z,8.10
2018-08-22T10:14:06.690Z,9.30
2018-08-22T10:15:06.710Z,7.70
2018-08-22T10:16:06.718Z,7.20
2018-08-22T10:17:06.782Z,6.30
2018-08-22T10:18:06.758Z,5.90
2018-08-22T10:19:06.773Z,6.20
2018-08-22T10:20:06.787Z,7.40
2018-08-22T10:21:06.804Z,8.50
2018-08-22T10:22:06.821Z,8.50
2018-08-22T10:23:06.843Z,6.30
2018-08-22T10:24:06.859Z,6.90
2018-08-22T10:25:06.876Z,10.10
2018-08-22T10:26:06.895Z,8.90
2018-08-22T10:27:06.967Z,7.00
2018-08-22T10:28:06.927Z,7.70
2018-08-22T10:29:06.939Z,6.20
2018-08-22T10:30:06.957Z,7.00
2018-08-22T10:31:06.980Z,6.10
2018-08-22T10:32:06.995Z,7.10
2018-08-22T10:33:07.091Z,6.90
2018-08-22T10:34:07.025Z,5.90
2018-08-22T10:35:07.051Z,5.40
2018-08-22T10:36:07.065Z,10.00
2018-08-22T10:37:07.081Z,10.10
2018-08-22T10:38:07.099Z,8.10
2018-08-22T10:39:07.112Z,8.30
2018-08-22T10:40:07.129Z,6.50
2018-08-22T10:41:07.146Z,9.40
2018-08-22T10:42:07.165Z,10.10
2018-08-22T10:43:07.190Z,7.80
2018-08-22T10:44:07.204Z,12.30
2018-08-22T10:45:07.220Z,10.80
2018-08-22T10:46:07.238Z,10.90
2018-08-22T10:47:07.252Z,6.90
2018-08-22T10:48:07.291Z,8.20
2018-08-22T10:49:07.289Z,8.90
2018-08-22T10:50:07.307Z,6.10
2018-08-22T10:51:07.322Z,6.10
2018-08-22T10:52:07.338Z,7.70
2018-08-22T10:53:07.354Z,7.70
2018-08-22T10:54:07.373Z,6.10
2018-08-22T10:55:07.394Z,7.40
2018-08-22T10:56:07.412Z,8.10
2018-08-22T10:57:07.428Z,6.50
2018-08-22T10:58:07.447Z,10.40
2018-08-22T10:59:07.463Z,6.80
2018-08-22T11:00:07.477Z,7.50
2018-08-22T11:01:07.494Z,9.90
2018-08-22T11:02:07.512Z,8.60
2018-08-22T11:03:07.533Z,7.30
2018-08-22T11:04:07.550Z,6.10
2018-08-22T11:05:07.563Z,8.10
2018-08-22T11:06:07.581Z,9.00
2018-08-22T11:07:07.605Z,9.20
2018-08-22T11:08:07.620Z,7.50
2018-08-22T11:09:07.638Z,7.10
2018-08-22T11:10:07.657Z,7.50
2018-08-22T11:11:07.666Z,7.70
2018-08-22T11:12:07.684Z,7.40
2018-08-22T11:13:07.699Z,9.10
2018-08-22T11:14:07.716Z,9.40
2018-08-22T11:15:07.741Z,8.60
2018-08-22T11:16:07.832Z,8.10
2018-08-22T11:17:07.770Z,6.90
2018-08-22T11:18:07.818Z,8.70
2018-08-22T11:19:07.800Z,8.20
2018-08-22T11:20:07.819Z,8.80
2018-08-22T11:21:07.837Z,10.10
2018-08-22T11:22:07.852Z,10.10
2018-08-22T11:23:07.865Z,8.20
2018-08-22T11:24:07.880Z,10.80
2018-08-22T11:25:07.896Z,9.60
2018-08-22T11:26:07.912Z,7.60
2018-08-22T11:27:07.933Z,6.90
2018-08-22T11:28:07.948Z,6.70
2018-08-22T11:29:07.964Z,6.90
2018-08-22T11:30:07.980Z,11.30
2018-08-22T11:31:07.990Z,8.60
2018-08-22T11:32:08.003Z,8.50
2018-08-22T11:33:08.017Z,7.70
2018-08-22T11:34:08.031Z,8.00
2018-08-22T11:35:08.050Z,9.90
2018-08-22T11:36:08.062Z,9.50
2018-08-22T11:37:08.076Z,8.50
2018-08-22T11:38:08.085Z,7.30
2018-08-22T11:39:08.101Z,9.40
2018-08-22T11:40:08.114Z,9.60
2018-08-22T11:41:08.128Z,9.20
2018-08-22T11:42:08.140Z,8.60
2018-08-22T11:43:08.146Z,8.70
2018-08-22T11:44:08.159Z,7.90
2018-08-22T11:45:08.170Z,8.30
2018-08-22T11:46:08.182Z,9.50
2018-08-22T11:47:08.195Z,12.20
2018-08-22T11:48:08.205Z,14.80
2018-08-22T11:49:08.217Z,12.20
2018-08-22T11:50:08.234Z,12.50
2018-08-22T11:51:08.233Z,13.20
2018-08-22T11:52:08.241Z,11.80
2018-08-22T11:53:08.256Z,8.80
2018-08-22T11:54:08.267Z,12.00
2018-08-22T11:55:08.270Z,10.50
2018-08-22T11:56:08.310Z,10.00
2018-08-22T11:57:08.289Z,10.00
2018-08-22T11:58:08.297Z,11.90
2018-08-22T11:59:08.310Z,8.40
2018-08-22T12:00:08.319Z,12.10
2018-08-22T12:01:08.328Z,10.50
2018-08-22T12:02:08.338Z,13.10
2018-08-22T12:03:08.342Z,12.60
2018-08-22T12:04:08.349Z,9.60
2018-08-22T12:05:08.357Z,8.60
2018-08-22T12:06:08.365Z,8.50
2018-08-22T12:07:08.379Z,6.90
2018-08-22T12:08:08.386Z,7.80
2018-08-22T12:09:08.390Z,6.20
2018-08-22T12:10:08.398Z,8.10
2018-08-22T12:11:08.411Z,9.60
2018-08-22T12:12:08.418Z,8.50
2018-08-22T12:13:08.425Z,10.50
2018-08-22T12:14:08.432Z,9.40
2018-08-22T12:15:08.435Z,7.80
2018-08-22T12:16:08.491Z,8.80
2018-08-22T12:17:08.450Z,7.80
2018-08-22T12:18:08.459Z,8.80
2018-08-22T12:19:08.470Z,8.20
2018-08-22T12:20:08.476Z,6.20
2018-08-22T12:21:08.485Z,11.10
2018-08-22T12:22:08.492Z,11.50
2018-08-22T12:23:08.530Z,8.30
2018-08-22T12:24:08.502Z,10.10
2018-08-22T12:25:08.515Z,6.90
2018-08-22T12:26:08.522Z,7.50
2018-08-22T12:27:08.525Z,8.90
2018-08-22T12:28:08.531Z,10.40
2018-08-22T12:29:08.538Z,7.30
2018-08-22T12:30:08.545Z,8.80
2018-08-22T12:31:08.613Z,8.70
2018-08-22T12:32:08.563Z,6.90
2018-08-22T12:33:08.571Z,6.20
2018-08-22T12:34:08.578Z,8.40
2018-08-22T12:35:08.581Z,6.90
2018-08-22T12:36:08.589Z,10.50
2018-08-22T12:37:08.594Z,8.50
2018-08-22T12:38:08.602Z,8.00
2018-08-22T12:39:08.617Z,9.10
2018-08-22T12:40:08.619Z,8.40
2018-08-22T12:41:08.625Z,8.80
2018-08-22T12:42:08.629Z,7.00
2018-08-22T12:43:08.642Z,10.40
2018-08-22T12:44:08.648Z,8.50
2018-08-22T12:45:08.655Z,8.20
2018-08-22T12:46:08.661Z,10.20
2018-08-22T12:47:08.665Z,10.90
2018-08-22T12:48:08.670Z,6.20
2018-08-22T12:49:08.678Z,10.10
2018-08-22T12:50:08.684Z,7.00
2018-08-22T12:51:08.697Z,7.40
2018-08-22T12:52:08.703Z,8.00
2018-08-22T12:53:08.708Z,11.90
2018-08-22T12:54:08.716Z,10.80
2018-08-22T12:55:08.718Z,8.20
2018-08-22T12:56:08.724Z,9.00
2018-08-22T12:57:08.763Z,8.50
2018-08-22T12:58:08.742Z,7.90
2018-08-22T12:59:08.746Z,8.10
2018-08-22T13:00:08.753Z,8.00
2018-08-22T13:01:08.757Z,7.10
2018-08-22T13:02:08.764Z,8.60
2018-08-22T13:03:08.777Z,7.90
2018-08-22T13:04:08.783Z,7.50
2018-08-22T13:05:08.790Z,8.40
2018-08-22T13:06:08.797Z,5.80
2018-08-22T13:07:08.798Z,8.50
2018-08-22T13:08:08.804Z,7.30
2018-08-22T13:09:08.810Z,9.40
2018-08-22T13:10:08.817Z,9.50
2018-08-22T13:11:08.848Z,6.80
2018-08-22T13:12:08.835Z,7.90
2018-08-22T13:13:08.839Z,7.10
2018-08-22T13:14:08.842Z,6.60
2018-08-22T13:15:08.855Z,7.50
2018-08-22T13:16:08.859Z,7.30
2018-08-22T13:17:08.868Z,8.80